createdAt,value
2024-02-02T00:01:23.236Z,49.70
2024-02-02T00:03:51.735Z,45.60
2024-02-02T00:06:20.167Z,49.50
2024-02-02T00:08:48.315Z,49.50
2024-02-02T00:11:19.422Z,50.20
2024-02-02T00:13:50.816Z,46.40
2024-02-02T00:16:18.857Z,46.40
2024-02-02T00:18:47.455Z,44.00
2024-02-02T00:21:16.468Z,42.90
2024-02-02T00:23:44.721Z,39.90
2024-02-02T00:26:12.825Z,40.50
2024-02-02T00:28:48.934Z,37.20
2024-02-02T00:31:22.829Z,38.10
2024-02-02T00:33:51.111Z,44.20
2024-02-02T00:36:19.233Z,39.00
2024-02-02T00:38:47.233Z,37.10
2024-02-02T00:41:17.279Z,42.40
2024-02-02T00:43:45.347Z,41.60
2024-02-02T00:46:13.461Z,40.30
2024-02-02T00:48:44.069Z,40.10
2024-02-02T00:51:12.358Z,40.60
2024-02-02T00:53:46.119Z,36.40
2024-02-02T00:56:14.874Z,37.30
2024-02-02T00:58:43.010Z,39.10
2024-02-02T01:02:37.990Z,37.60
2024-02-02T01:05:06.746Z,37.80
2024-02-02T01:07:35.162Z,40.30
2024-02-02T01:10:07.211Z,38.80
2024-02-02T01:12:36.653Z,39.30
2024-02-02T01:15:05.404Z,39.40
2024-02-02T01:17:33.717Z,39.50
2024-02-02T01:20:05.054Z,37.80
2024-02-02T01:22:34.472Z,35.70
2024-02-02T01:25:02.658Z,39.30
2024-02-02T01:27:30.867Z,34.90
2024-02-02T01:29:59.007Z,38.20
2024-02-02T01:32:27.143Z,39.10
2024-02-02T01:38:16.487Z,38.70
2024-02-02T01:40:45.303Z,37.90
2024-02-02T01:43:14.201Z,39.10
2024-02-02T01:45:42.372Z,39.10
2024-02-02T01:48:10.675Z,39.60
2024-02-02T01:50:38.925Z,38.50
2024-02-02T01:53:07.236Z,41.60
2024-02-02T01:55:35.809Z,39.00
2024-02-02T01:58:04.147Z,39.30
2024-02-02T02:00:32.692Z,39.40
2024-02-02T02:03:01.311Z,42.20
2024-02-02T02:05:29.602Z,40.30
2024-02-02T02:07:57.680Z,38.60
2024-02-02T02:10:26.426Z,41.00
2024-02-02T02:12:54.666Z,39.50
2024-02-02T02:15:25.004Z,41.80
2024-02-02T02:17:53.505Z,40.60
2024-02-02T02:20:27.521Z,39.30
2024-02-02T02:22:55.973Z,37.90
2024-02-02T02:25:24.088Z,38.10
2024-02-02T02:27:52.195Z,40.20
2024-02-02T02:30:20.479Z,36.20
2024-02-02T02:32:48.754Z,38.10
2024-02-02T02:35:17.196Z,39.40
2024-02-02T02:37:45.218Z,39.70
2024-02-02T02:40:13.888Z,38.20
2024-02-02T02:42:42.038Z,33.40
2024-02-02T02:45:10.200Z,35.70
2024-02-02T02:47:38.640Z,31.90
2024-02-02T02:50:07.385Z,30.50
2024-02-02T02:52:36.013Z,29.10
2024-02-02T02:55:06.146Z,26.60
2024-02-02T02:57:34.473Z,28.10
2024-02-02T03:00:03.786Z,24.40
2024-02-02T03:02:32.022Z,26.30
2024-02-02T03:05:00.309Z,25.20
2024-02-02T03:07:28.417Z,24.50
2024-02-02T03:09:56.656Z,23.40
2024-02-02T03:12:24.841Z,21.00
2024-02-02T03:14:53.173Z,23.10
2024-02-02T03:17:21.290Z,20.90
2024-02-02T03:19:49.440Z,21.10
2024-02-02T03:22:17.434Z,22.70
2024-02-02T03:24:45.630Z,19.90
2024-02-02T03:27:13.765Z,21.40
2024-02-02T03:29:41.981Z,20.80
2024-02-02T03:32:10.134Z,21.00
2024-02-02T03:34:38.719Z,22.10
2024-02-02T03:37:07.195Z,18.90
2024-02-02T03:39:35.780Z,20.00
2024-02-02T03:42:05.647Z,18.70
2024-02-02T03:44:33.790Z,19.50
2024-02-02T03:47:02.136Z,18.00
2024-02-02T03:49:30.469Z,14.80
2024-02-02T03:51:58.666Z,14.60
2024-02-02T03:54:26.933Z,16.70
2024-02-02T03:56:55.796Z,14.60
2024-02-02T03:59:24.071Z,14.70
2024-02-02T04:01:52.561Z,15.50
2024-02-02T04:04:20.808Z,16.90
2024-02-02T04:06:49.023Z,15.90
2024-02-02T04:09:17.107Z,17.90
2024-02-02T04:11:45.309Z,15.60
2024-02-02T04:17:39.005Z,17.80
2024-02-02T04:20:07.966Z,17.00
2024-02-02T04:22:36.147Z,16.50
2024-02-02T04:25:04.614Z,17.70
2024-02-02T04:27:32.725Z,18.90
2024-02-02T04:30:00.930Z,18.40
2024-02-02T04:32:29.376Z,17.90
2024-02-02T04:34:57.476Z,17.20
2024-02-02T04:37:26.486Z,18.20
2024-02-02T04:39:54.741Z,19.60
2024-02-02T04:42:22.906Z,17.50
2024-02-02T04:44:51.177Z,16.60
2024-02-02T04:47:19.335Z,19.50
2024-02-02T04:49:47.615Z,18.70
2024-02-02T04:52:15.985Z,19.70
2024-02-02T04:54:44.194Z,19.40
2024-02-02T04:57:12.419Z,19.00
2024-02-02T04:59:40.710Z,17.70
2024-02-02T05:02:09.039Z,17.70
2024-02-02T05:04:37.436Z,17.00
2024-02-02T05:07:05.665Z,16.70
2024-02-02T05:09:33.820Z,15.70
2024-02-02T05:12:02.168Z,16.50
2024-02-02T05:14:30.383Z,17.00
2024-02-02T05:16:58.511Z,17.10
2024-02-02T05:19:27.048Z,17.30
2024-02-02T05:21:55.520Z,16.80
2024-02-02T05:24:38.284Z,15.90
2024-02-02T05:27:14.430Z,16.60
2024-02-02T05:29:45.324Z,15.40
2024-02-02T05:32:14.014Z,14.90
2024-02-02T05:34:42.883Z,14.80
2024-02-02T05:37:11.149Z,13.70
2024-02-02T05:39:39.311Z,12.40
2024-02-02T05:42:07.480Z,13.10
2024-02-02T05:44:35.633Z,14.30
2024-02-02T05:47:03.680Z,14.30
2024-02-02T05:49:31.791Z,12.80
2024-02-02T05:52:01.432Z,15.50
2024-02-02T05:54:29.814Z,15.30
2024-02-02T05:56:58.114Z,14.40
2024-02-02T05:59:29.116Z,13.40
2024-02-02T06:01:57.218Z,13.10
2024-02-02T06:04:25.438Z,13.70
2024-02-02T06:06:53.715Z,13.10
2024-02-02T06:09:22.038Z,13.20
2024-02-02T06:11:50.132Z,13.50
2024-02-02T06:14:18.414Z,14.20
2024-02-02T06:16:48.220Z,14.60
2024-02-02T06:19:16.470Z,13.10
2024-02-02T06:21:44.897Z,14.30
2024-02-02T06:24:13.029Z,14.30
2024-02-02T06:26:41.277Z,15.20
2024-02-02T06:29:34.108Z,14.90
2024-02-02T06:32:02.298Z,14.30
2024-02-02T06:34:30.956Z,14.40
2024-02-02T06:36:59.278Z,14.50
2024-02-02T06:39:27.350Z,15.10
2024-02-02T06:41:55.653Z,14.20
2024-02-02T06:44:24.678Z,14.60
2024-02-02T06:46:52.828Z,15.10
2024-02-02T06:49:21.236Z,13.90
2024-02-02T06:51:49.468Z,14.10
2024-02-02T06:54:43.007Z,13.10
2024-02-02T06:57:19.125Z,14.50
2024-02-02T06:59:59.069Z,14.00
2024-02-02T07:02:36.648Z,15.70
2024-02-02T07:05:05.211Z,14.00
2024-02-02T07:07:33.334Z,14.50
2024-02-02T07:10:02.325Z,15.70
2024-02-02T07:12:36.209Z,17.70
2024-02-02T07:15:05.735Z,15.70
2024-02-02T07:17:41.877Z,19.00
2024-02-02T07:20:31.748Z,18.30
2024-02-02T07:23:02.579Z,16.30
2024-02-02T07:25:38.593Z,16.30
2024-02-02T07:28:43.090Z,13.50
2024-02-02T07:31:22.562Z,13.00
2024-02-02T07:33:51.543Z,13.00
2024-02-02T07:36:31.755Z,12.70
2024-02-02T07:38:59.960Z,11.80
2024-02-02T07:41:30.280Z,13.00
2024-02-02T07:44:00.978Z,12.90
2024-02-02T07:46:30.142Z,13.80
2024-02-02T07:48:58.718Z,12.60
2024-02-02T07:51:46.186Z,13.30
2024-02-02T07:56:42.541Z,12.00
2024-02-02T07:59:10.630Z,13.20
2024-02-02T08:01:39.179Z,14.80
2024-02-02T08:04:07.290Z,14.30
2024-02-02T08:06:35.650Z,12.90
2024-02-02T08:09:04.078Z,13.90
2024-02-02T08:11:36.932Z,14.00
2024-02-02T08:14:05.227Z,13.20
2024-02-02T08:16:33.382Z,13.10
2024-02-02T08:19:01.593Z,16.60
2024-02-02T08:21:30.024Z,13.80
2024-02-02T08:23:59.761Z,14.90
2024-02-02T08:26:28.279Z,14.10
2024-02-02T08:28:56.314Z,13.50
2024-02-02T08:31:25.069Z,14.60
2024-02-02T08:33:53.465Z,13.30
2024-02-02T08:39:47.241Z,12.90
2024-02-02T08:42:25.225Z,13.90
2024-02-02T08:44:54.995Z,13.30
2024-02-02T08:47:25.116Z,14.70
2024-02-02T08:49:57.563Z,13.20
2024-02-02T08:52:34.410Z,13.00
2024-02-02T08:55:08.056Z,14.00
2024-02-02T08:57:36.406Z,14.50
2024-02-02T09:00:17.321Z,13.90
2024-02-02T09:03:02.191Z,13.90
2024-02-02T09:05:55.145Z,14.10
2024-02-02T09:08:23.372Z,13.70
2024-02-02T09:11:00.837Z,12.50
2024-02-02T09:13:35.684Z,14.30
2024-02-02T09:16:05.344Z,11.50
2024-02-02T09:18:34.999Z,12.80
2024-02-02T09:21:05.265Z,13.10
2024-02-02T09:23:34.458Z,10.70
2024-02-02T09:26:17.728Z,12.10
2024-02-02T09:28:47.179Z,11.00
2024-02-02T09:31:25.017Z,11.90
2024-02-02T09:33:56.485Z,12.20
2024-02-02T09:36:27.902Z,12.30
2024-02-02T09:39:01.701Z,10.60
2024-02-02T09:41:35.869Z,10.60
2024-02-02T09:44:42.155Z,11.60
2024-02-02T09:47:27.906Z,11.40
2024-02-02T09:50:20.751Z,11.90
2024-02-02T09:53:07.731Z,12.00
2024-02-02T09:55:38.863Z,10.60
2024-02-02T09:58:36.762Z,10.80
2024-02-02T10:01:21.310Z,10.40
2024-02-02T10:04:22.445Z,12.20
2024-02-02T10:07:10.501Z,10.60
2024-02-02T10:10:03.331Z,14.90
2024-02-02T10:13:18.260Z,13.20
2024-02-02T10:16:06.208Z,11.40
2024-02-02T10:18:47.352Z,11.40
2024-02-02T10:21:34.789Z,9.90
2024-02-02T10:24:33.411Z,11.00
2024-02-02T10:27:41.739Z,11.50
2024-02-02T10:30:10.619Z,11.30
2024-02-02T10:33:07.499Z,10.60
2024-02-02T10:36:09.150Z,9.70
2024-02-02T10:39:12.101Z,9.90
2024-02-02T10:41:58.033Z,9.90
2024-02-02T10:44:54.273Z,8.80
2024-02-02T10:47:39.141Z,8.80
2024-02-02T10:50:26.785Z,9.50
2024-02-02T10:53:03.961Z,10.60
2024-02-02T10:55:38.166Z,10.20
2024-02-02T10:58:16.712Z,9.70
2024-02-02T11:00:56.534Z,10.30
2024-02-02T11:03:40.658Z,10.70
2024-02-02T11:06:33.029Z,10.40
2024-02-02T11:09:36.668Z,9.40
2024-02-02T11:12:43.460Z,9.60
2024-02-02T11:15:17.632Z,10.40
2024-02-02T11:18:03.231Z,8.70
2024-02-02T11:20:37.338Z,10.00
2024-02-02T11:23:27.577Z,9.50
2024-02-02T11:26:36.278Z,8.70
2024-02-02T11:29:45.679Z,8.40
2024-02-02T11:32:40.595Z,10.10
2024-02-02T11:35:21.805Z,9.40
2024-02-02T11:37:55.997Z,9.30
2024-02-02T11:40:26.618Z,8.40
2024-02-02T11:42:58.188Z,9.40
2024-02-02T11:45:34.912Z,8.60
2024-02-02T11:48:05.902Z,9.40
2024-02-02T11:50:53.741Z,9.40
2024-02-02T11:53:37.280Z,9.60
2024-02-02T11:56:11.578Z,10.70
2024-02-02T11:58:44.548Z,10.40
2024-02-02T12:01:18.320Z,11.90
2024-02-02T12:04:10.743Z,9.90
2024-02-02T12:07:16.630Z,9.50
2024-02-02T12:09:49.643Z,12.30
2024-02-02T12:12:33.123Z,10.70
2024-02-02T12:15:04.483Z,12.60
2024-02-02T12:17:32.873Z,12.00
2024-02-02T12:20:33.432Z,13.70
2024-02-02T12:23:02.038Z,13.40
2024-02-02T12:25:30.874Z,13.30
2024-02-02T12:27:59.009Z,15.60
2024-02-02T12:30:27.389Z,14.10
2024-02-02T12:33:00.193Z,16.10
2024-02-02T12:35:32.167Z,14.30
2024-02-02T12:38:05.354Z,15.10
2024-02-02T12:40:34.402Z,16.70
2024-02-02T12:43:03.599Z,16.10
2024-02-02T12:45:37.436Z,15.40
2024-02-02T12:48:11.921Z,15.10
2024-02-02T12:50:40.187Z,13.80
2024-02-02T12:53:09.115Z,14.20
2024-02-02T12:55:37.536Z,13.90
2024-02-02T12:58:05.864Z,14.00
2024-02-02T13:00:34.231Z,14.70
2024-02-02T13:03:06.316Z,16.40
2024-02-02T13:05:38.778Z,17.40
2024-02-02T13:08:09.624Z,15.60
2024-02-02T13:10:37.893Z,12.30
2024-02-02T13:13:22.344Z,12.80
2024-02-02T13:15:50.642Z,13.10
2024-02-02T13:18:24.030Z,13.80
2024-02-02T13:20:55.580Z,12.20
2024-02-02T13:23:26.392Z,13.50
2024-02-02T13:26:02.199Z,13.50
2024-02-02T13:28:42.610Z,13.60
2024-02-02T13:31:14.591Z,12.80
2024-02-02T13:34:06.069Z,12.80
2024-02-02T13:36:40.777Z,13.30
2024-02-02T13:39:19.737Z,12.90
2024-02-02T13:41:49.166Z,12.90
2024-02-02T13:44:24.056Z,14.30
2024-02-02T13:46:53.938Z,14.70
2024-02-02T13:50:20.144Z,15.50
2024-02-02T13:52:41.185Z,15.60
2024-02-02T13:55:09.572Z,16.90
2024-02-02T13:57:38.604Z,15.10
2024-02-02T14:00:08.820Z,17.40
2024-02-02T14:02:36.945Z,17.20
2024-02-02T14:05:08.968Z,16.40
2024-02-02T14:07:39.514Z,15.60
2024-02-02T14:10:10.110Z,16.20
2024-02-02T14:12:44.910Z,15.40
2024-02-02T14:15:15.085Z,17.40
2024-02-02T14:17:43.637Z,16.90
2024-02-02T14:20:20.211Z,17.80
2024-02-02T14:25:32.712Z,15.90
2024-02-02T14:28:00.813Z,15.80
2024-02-02T14:30:29.652Z,15.80
2024-02-02T14:33:09.123Z,17.80
2024-02-02T14:35:47.740Z,16.50
2024-02-02T14:38:18.281Z,16.10
2024-02-02T14:40:49.609Z,15.40
2024-02-02T14:43:17.847Z,15.80
2024-02-02T14:45:51.118Z,16.20
2024-02-02T14:48:20.760Z,15.30
2024-02-02T14:50:57.936Z,15.50
2024-02-02T14:53:28.084Z,15.00
2024-02-02T14:55:57.286Z,17.00
2024-02-02T14:58:26.458Z,16.80
2024-02-02T15:00:55.694Z,15.90
2024-02-02T15:03:25.182Z,15.80
2024-02-02T15:06:00.507Z,16.00
2024-02-02T15:08:28.883Z,16.30
2024-02-02T15:11:00.586Z,17.60
2024-02-02T15:13:29.023Z,17.60
2024-02-02T15:15:57.163Z,16.70
2024-02-02T15:18:33.172Z,17.20
2024-02-02T15:21:05.551Z,17.00
2024-02-02T15:23:36.940Z,17.80
2024-02-02T15:26:05.125Z,16.70
2024-02-02T15:28:39.792Z,17.60
2024-02-02T15:31:08.601Z,17.10
2024-02-02T15:33:38.114Z,18.20
2024-02-02T15:36:06.463Z,30.20
2024-02-02T15:38:34.895Z,31.10
2024-02-02T15:41:10.285Z,17.70
2024-02-02T15:43:41.294Z,19.70
2024-02-02T15:46:25.309Z,16.80
2024-02-02T15:49:14.446Z,15.50
2024-02-02T15:51:43.301Z,15.60
2024-02-02T15:54:11.491Z,14.70
2024-02-02T15:56:40.558Z,15.10
2024-02-02T15:59:08.791Z,15.50
2024-02-02T16:01:37.409Z,15.30
2024-02-02T16:04:08.792Z,14.60
2024-02-02T16:06:36.928Z,15.40
2024-02-02T16:09:07.337Z,14.70
2024-02-02T16:11:36.974Z,13.70
2024-02-02T16:14:05.060Z,12.70
2024-02-02T16:16:33.193Z,13.20
2024-02-02T16:19:01.414Z,13.00
2024-02-02T16:21:29.639Z,14.00
2024-02-02T16:23:57.879Z,12.80
2024-02-02T16:26:26.078Z,13.30
2024-02-02T16:28:54.211Z,12.00
2024-02-02T16:31:27.339Z,13.20
2024-02-02T16:33:55.646Z,12.50
2024-02-02T16:36:29.156Z,12.20
2024-02-02T16:39:00.445Z,12.20
2024-02-02T16:41:37.891Z,12.50
2024-02-02T16:44:07.372Z,12.50
2024-02-02T16:46:43.301Z,11.90
2024-02-02T16:49:18.829Z,13.10
2024-02-02T16:51:51.853Z,12.90
2024-02-02T16:54:51.709Z,13.20
2024-02-02T16:57:30.634Z,12.20
2024-02-02T16:59:59.064Z,13.20
2024-02-02T17:05:56.193Z,16.60
2024-02-02T17:08:27.204Z,15.70
2024-02-02T17:10:59.766Z,22.20
2024-02-02T17:13:27.880Z,20.80
2024-02-02T17:15:56.897Z,20.00
2024-02-02T17:18:25.241Z,17.50
2024-02-02T17:21:11.110Z,15.20
2024-02-02T17:23:40.411Z,14.70
2024-02-02T17:26:18.418Z,15.50
2024-02-02T17:28:50.444Z,14.10
2024-02-02T17:31:20.657Z,14.10
2024-02-02T17:33:48.710Z,14.50
2024-02-02T17:36:18.101Z,14.70
2024-02-02T17:38:53.773Z,15.20
2024-02-02T17:41:25.897Z,15.90
2024-02-02T17:43:57.917Z,15.40
2024-02-02T17:46:28.933Z,16.80
2024-02-02T17:48:59.521Z,17.10
2024-02-02T17:51:30.541Z,16.80
2024-02-02T17:54:01.922Z,16.50
2024-02-02T17:56:35.258Z,16.30
2024-02-02T17:59:06.273Z,15.60
2024-02-02T18:01:37.592Z,15.70
2024-02-02T18:04:08.664Z,15.40
2024-02-02T18:06:40.136Z,15.90
2024-02-02T18:09:10.399Z,17.00
2024-02-02T18:11:44.296Z,15.60
2024-02-02T18:14:15.171Z,14.80
2024-02-02T18:16:43.398Z,14.40
2024-02-02T18:19:14.153Z,14.00
2024-02-02T18:21:42.534Z,15.10
2024-02-02T18:24:18.742Z,15.20
2024-02-02T18:26:46.861Z,15.00
2024-02-02T18:29:18.066Z,16.40
2024-02-02T18:31:47.084Z,15.70
2024-02-02T18:34:15.276Z,15.40
2024-02-02T18:36:50.679Z,15.80
2024-02-02T18:39:38.488Z,16.80
2024-02-02T18:42:10.822Z,15.60
2024-02-02T18:44:39.335Z,16.30
2024-02-02T18:47:08.709Z,14.30
2024-02-02T18:49:38.452Z,14.90
2024-02-02T18:52:07.342Z,15.60
2024-02-02T18:54:37.947Z,14.70
2024-02-02T18:57:07.070Z,15.50
2024-02-02T18:59:38.452Z,14.80
2024-02-02T19:02:06.677Z,16.50
2024-02-02T19:04:35.740Z,14.70
2024-02-02T19:07:06.267Z,23.10
2024-02-02T19:09:34.774Z,16.10
2024-02-02T19:12:03.270Z,16.30
2024-02-02T19:14:31.280Z,15.00
2024-02-02T19:17:00.092Z,14.90
2024-02-02T19:19:28.396Z,14.80
2024-02-02T19:21:56.590Z,13.90
2024-02-02T19:24:27.187Z,14.90
2024-02-02T19:26:56.229Z,14.70
2024-02-02T19:29:24.350Z,14.80
2024-02-02T19:31:52.359Z,13.60
2024-02-02T19:34:20.558Z,15.80
2024-02-02T19:36:48.872Z,14.60
2024-02-02T19:39:17.261Z,14.90
2024-02-02T19:41:45.388Z,16.20
2024-02-02T19:44:13.583Z,19.00
2024-02-02T19:46:44.502Z,18.50
2024-02-02T19:49:12.755Z,18.00
2024-02-02T19:51:41.115Z,21.10
2024-02-02T19:54:10.021Z,17.00
2024-02-02T19:56:38.132Z,18.40
2024-02-02T19:59:06.321Z,17.60
2024-02-02T20:01:38.768Z,17.40
2024-02-02T20:04:07.728Z,27.50
2024-02-02T20:06:38.556Z,19.00
2024-02-02T20:09:07.579Z,19.20
2024-02-02T20:11:35.817Z,18.40
2024-02-02T20:14:03.904Z,21.00
2024-02-02T20:16:31.993Z,20.30
2024-02-02T20:19:00.180Z,21.30
2024-02-02T20:21:29.548Z,23.50
2024-02-02T20:24:00.136Z,21.30
2024-02-02T20:26:28.283Z,21.50
2024-02-02T20:28:56.457Z,22.20
2024-02-02T20:31:27.733Z,22.60
2024-02-02T20:33:57.896Z,24.70
2024-02-02T20:36:31.745Z,22.50
2024-02-02T20:39:00.062Z,25.30
2024-02-02T20:41:28.389Z,25.90
2024-02-02T20:43:58.610Z,26.30
2024-02-02T20:46:27.143Z,28.80
2024-02-02T20:48:55.517Z,30.20
2024-02-02T20:51:23.729Z,30.20
2024-02-02T20:53:52.277Z,30.40
2024-02-02T20:56:20.396Z,29.00
2024-02-02T20:58:50.661Z,27.90
2024-02-02T21:01:18.758Z,29.30
2024-02-02T21:03:47.006Z,29.70
2024-02-02T21:09:28.496Z,27.90
2024-02-02T21:11:56.776Z,25.70
2024-02-02T21:14:24.957Z,25.30
2024-02-02T21:16:53.175Z,26.10
2024-02-02T21:19:21.397Z,24.80
2024-02-02T21:21:50.134Z,23.50
2024-02-02T21:24:18.714Z,21.80
2024-02-02T21:26:48.298Z,22.50
2024-02-02T21:29:21.530Z,21.50
2024-02-02T21:31:50.274Z,21.30
2024-02-02T21:34:26.104Z,22.30
2024-02-02T21:36:54.329Z,21.30
2024-02-02T21:39:25.052Z,22.50
2024-02-02T21:41:53.727Z,23.20
2024-02-02T21:44:26.979Z,23.20
2024-02-02T21:46:55.089Z,22.40
2024-02-02T21:49:30.918Z,21.00
2024-02-02T21:52:06.363Z,19.40
2024-02-02T21:54:41.148Z,19.90
2024-02-02T21:57:10.575Z,18.30
2024-02-02T21:59:43.704Z,20.30
2024-02-02T22:02:18.052Z,19.50
2024-02-02T22:04:53.895Z,19.40
2024-02-02T22:07:31.167Z,18.60
2024-02-02T22:10:02.024Z,18.70
2024-02-02T22:12:32.719Z,19.30
2024-02-02T22:15:11.173Z,20.00
2024-02-02T22:17:42.180Z,20.10
2024-02-02T22:20:14.582Z,22.20
2024-02-02T22:22:58.075Z,25.20
2024-02-02T22:25:26.281Z,24.00
2024-02-02T22:27:59.960Z,21.60
2024-02-02T22:30:34.023Z,20.90
2024-02-02T22:33:03.848Z,20.20
2024-02-02T22:35:40.800Z,21.10
2024-02-02T22:38:09.023Z,20.50
2024-02-02T22:40:37.247Z,22.60
2024-02-02T22:43:09.900Z,20.80
2024-02-02T22:45:38.124Z,20.80
2024-02-02T22:48:06.587Z,22.00
2024-02-02T22:50:39.600Z,21.50
2024-02-02T22:53:18.148Z,21.00
2024-02-02T22:55:48.660Z,22.00
2024-02-02T22:58:17.352Z,21.10
2024-02-02T23:00:49.419Z,21.80
2024-02-02T23:03:20.305Z,21.00
2024-02-02T23:05:54.757Z,18.80
2024-02-02T23:08:25.874Z,18.10
2024-02-02T23:10:59.225Z,17.60
2024-02-02T23:13:29.178Z,17.50
2024-02-02T23:16:00.734Z,16.30
2024-02-02T23:18:31.744Z,15.80
2024-02-02T23:21:01.139Z,15.70
2024-02-02T23:23:30.343Z,14.40
2024-02-02T23:26:06.155Z,14.00
2024-02-02T23:28:40.061Z,14.50
2024-02-02T23:31:12.240Z,13.90
2024-02-02T23:33:42.293Z,14.00
2024-02-02T23:36:14.207Z,13.80
2024-02-02T23:38:45.176Z,14.10
2024-02-02T23:41:17.050Z,13.00
2024-02-02T23:43:46.097Z,13.60
2024-02-02T23:46:18.984Z,13.20
2024-02-02T23:48:50.697Z,13.30
2024-02-02T23:51:44.288Z,12.60
2024-02-02T23:54:13.947Z,12.80
2024-02-02T23:56:42.522Z,12.90
2024-02-02T23:59:13.406Z,14.00
